createdAt,value
2022-11-12T00:00:31.632Z,1027.16
2022-11-12T00:01:31.953Z,1027.20
2022-11-12T00:02:32.303Z,1027.18
2022-11-12T00:03:32.522Z,1027.26
2022-11-12T00:04:32.838Z,1027.19
2022-11-12T00:05:33.175Z,1027.19
2022-11-12T00:06:33.604Z,1027.18
2022-11-12T00:07:33.825Z,1027.22
2022-11-12T00:08:34.042Z,1027.18
2022-11-12T00:09:34.394Z,1027.23
2022-11-12T00:10:34.605Z,1027.20
2022-11-12T00:11:34.925Z,1027.23
2022-11-12T00:12:35.297Z,1027.18
2022-11-12T00:13:35.496Z,1027.21
2022-11-12T00:14:35.853Z,1027.21
2022-11-12T00:15:36.085Z,1027.21
2022-11-12T00:16:36.297Z,1027.15
2022-11-12T00:17:36.637Z,1027.19
2022-11-12T00:18:36.867Z,1027.18
2022-11-12T00:19:37.099Z,1027.16
2022-11-12T00:20:37.416Z,1027.21
2022-11-12T00:21:37.759Z,1027.25
2022-11-12T00:22:38.108Z,1027.21
2022-11-12T00:23:38.308Z,1027.18
2022-11-12T00:24:38.662Z,1027.19
2022-11-12T00:25:39.014Z,1027.18
2022-11-12T00:26:39.218Z,1027.19
2022-11-12T00:27:39.568Z,1027.22
2022-11-12T00:28:39.921Z,1027.19
2022-11-12T00:29:40.160Z,1027.20
2022-11-12T00:30:40.361Z,1027.23
2022-11-12T00:31:40.695Z,1027.28
2022-11-12T00:32:41.039Z,1027.23
2022-11-12T00:33:41.380Z,1027.24
2022-11-12T00:34:41.731Z,1027.24
2022-11-12T00:35:41.940Z,1027.26
2022-11-12T00:36:42.299Z,1027.24
2022-11-12T00:37:42.508Z,1027.26
2022-11-12T00:38:42.833Z,1027.23
2022-11-12T00:39:43.151Z,1027.24
2022-11-12T00:40:43.521Z,1027.29
2022-11-12T00:41:43.780Z,1027.32
2022-11-12T00:42:43.984Z,1027.27
2022-11-12T00:43:44.312Z,1027.33
2022-11-12T00:44:44.641Z,1027.30
2022-11-12T00:45:44.994Z,1027.28
2022-11-12T00:46:45.219Z,1027.30
2022-11-12T00:47:45.572Z,1027.28
2022-11-12T00:48:45.813Z,1027.31
2022-11-12T00:49:46.032Z,1027.30
2022-11-12T00:50:46.352Z,1027.30
2022-11-12T00:51:46.705Z,1027.30
2022-11-12T00:52:46.916Z,1027.31
2022-11-12T00:53:47.233Z,1027.35
2022-11-12T00:54:47.563Z,1027.31
2022-11-12T00:55:47.921Z,1027.36
2022-11-12T00:56:48.135Z,1027.30
2022-11-12T00:57:48.456Z,1027.31
2022-11-12T00:58:48.785Z,1027.35
2022-11-12T00:59:49.104Z,1027.37
2022-11-12T01:00:49.463Z,1027.35
2022-11-12T01:01:49.690Z,1027.39
2022-11-12T01:02:51.414Z,1027.32
2022-11-12T01:03:50.379Z,1027.39
2022-11-12T01:04:50.716Z,1027.33
2022-11-12T01:05:50.927Z,1027.38
2022-11-12T01:06:51.304Z,1027.40
2022-11-12T01:07:55.815Z,1027.37
2022-11-12T01:08:51.818Z,1027.37
2022-11-12T01:09:52.126Z,1027.40
2022-11-12T01:10:52.458Z,1027.36
2022-11-12T01:11:52.815Z,1027.39
2022-11-12T01:12:53.028Z,1027.35
2022-11-12T01:13:53.348Z,1027.44
2022-11-12T01:14:53.711Z,1027.41
2022-11-12T01:15:53.903Z,1027.37
2022-11-12T01:16:54.274Z,1027.39
2022-11-12T01:17:54.493Z,1027.42
2022-11-12T01:18:54.852Z,1027.43
2022-11-12T01:19:55.048Z,1027.39
2022-11-12T01:20:55.368Z,1027.41
2022-11-12T01:21:55.708Z,1027.36
2022-11-12T01:22:56.020Z,1027.37
2022-11-12T01:23:56.369Z,1027.38
2022-11-12T01:24:56.581Z,1027.36
2022-11-12T01:25:56.912Z,1027.40
2022-11-12T01:26:57.260Z,1027.37
2022-11-12T01:27:57.467Z,1027.40
2022-11-12T01:28:57.821Z,1027.38
2022-11-12T01:29:58.044Z,1027.42
2022-11-12T01:30:58.280Z,1027.33
2022-11-12T01:31:58.501Z,1027.38
2022-11-12T01:32:58.870Z,1027.41
2022-11-12T01:33:59.088Z,1027.41
2022-11-12T01:34:59.427Z,1027.37
2022-11-12T01:35:59.635Z,1027.42
2022-11-12T01:36:59.973Z,1027.35
2022-11-12T01:38:00.299Z,1027.42
2022-11-12T01:39:00.615Z,1027.44
2022-11-12T01:40:00.868Z,1027.45
2022-11-12T01:41:01.215Z,1027.43
2022-11-12T01:42:01.433Z,1027.39
2022-11-12T01:43:01.636Z,1027.37
2022-11-12T01:44:01.955Z,1027.40
2022-11-12T01:45:02.275Z,1027.45
2022-11-12T01:46:02.613Z,1027.45
2022-11-12T01:47:02.969Z,1027.46
2022-11-12T01:48:03.165Z,1027.36
2022-11-12T01:49:03.494Z,1027.41
2022-11-12T01:50:03.852Z,1027.42
2022-11-12T01:51:04.055Z,1027.42
2022-11-12T01:52:04.405Z,1027.36
2022-11-12T01:53:04.604Z,1027.38
2022-11-12T01:54:04.924Z,1027.34
2022-11-12T01:55:05.254Z,1027.37
2022-11-12T01:56:05.607Z,1027.37
2022-11-12T01:57:05.845Z,1027.41
2022-11-12T01:58:06.064Z,1027.35
2022-11-12T01:59:06.405Z,1027.32
2022-11-12T02:00:06.747Z,1027.33
2022-11-12T02:01:07.088Z,1027.30
2022-11-12T02:02:07.439Z,1027.31
2022-11-12T02:03:07.655Z,1027.39
2022-11-12T02:04:07.977Z,1027.32
2022-11-12T02:05:08.320Z,1027.27
2022-11-12T02:06:08.634Z,1027.31
2022-11-12T02:07:08.995Z,1027.35
2022-11-12T02:08:09.198Z,1027.33
2022-11-12T02:09:09.519Z,1027.34
2022-11-12T02:10:09.855Z,1027.33
2022-11-12T02:11:10.198Z,1027.34
2022-11-12T02:12:10.427Z,1027.32
2022-11-12T02:13:10.650Z,1027.32
2022-11-12T02:14:10.977Z,1027.33
2022-11-12T02:15:11.313Z,1027.37
2022-11-12T02:16:11.650Z,1027.35
2022-11-12T02:17:11.987Z,1027.34
2022-11-12T02:18:12.208Z,1027.36
2022-11-12T02:19:12.548Z,1027.34
2022-11-12T02:20:12.891Z,1027.35
2022-11-12T02:21:13.114Z,1027.37
2022-11-12T02:22:13.454Z,1027.40
2022-11-12T02:23:13.789Z,1027.47
2022-11-12T02:24:14.141Z,1027.42
2022-11-12T02:25:14.359Z,1027.39
2022-11-12T02:26:14.693Z,1027.41
2022-11-12T02:27:15.030Z,1027.35
2022-11-12T02:28:15.249Z,1027.37
2022-11-12T02:29:15.579Z,1027.43
2022-11-12T02:30:15.900Z,1027.45
2022-11-12T02:31:16.230Z,1027.47
2022-11-12T02:32:16.590Z,1027.39
2022-11-12T02:33:16.790Z,1027.38
2022-11-12T02:34:17.111Z,1027.47
2022-11-12T02:35:17.450Z,1027.47
2022-11-12T02:36:17.799Z,1027.43
2022-11-12T02:37:18.129Z,1027.38
2022-11-12T02:38:18.461Z,1027.43
2022-11-12T02:39:18.801Z,1027.45
2022-11-12T02:40:19.120Z,1027.46
2022-11-12T02:41:19.454Z,1027.49
2022-11-12T02:42:19.780Z,1027.51
2022-11-12T02:43:20.101Z,1027.55
2022-11-12T02:44:20.421Z,1027.53
2022-11-12T02:45:20.765Z,1027.50
2022-11-12T02:46:21.107Z,1027.53
2022-11-12T02:47:21.462Z,1027.60
2022-11-12T02:48:21.654Z,1027.58
2022-11-12T02:49:21.985Z,1027.57
2022-11-12T02:50:22.323Z,1027.60
2022-11-12T02:51:22.654Z,1027.58
2022-11-12T02:52:23.004Z,1027.52
2022-11-12T02:53:23.204Z,1027.50
2022-11-12T02:54:23.553Z,1027.60
2022-11-12T02:55:23.765Z,1027.56
2022-11-12T02:56:24.117Z,1027.57
2022-11-12T02:57:24.446Z,1027.55
2022-11-12T02:58:25.189Z,1027.65
2022-11-12T02:59:25.114Z,1027.60
2022-11-12T03:00:25.435Z,1027.66
2022-11-12T03:01:25.875Z,1027.61
2022-11-12T03:02:26.114Z,1027.68
2022-11-12T03:03:26.311Z,1027.67
2022-11-12T03:04:26.646Z,1027.67
2022-11-12T03:05:26.971Z,1027.74
2022-11-12T03:06:27.288Z,1027.60
2022-11-12T03:07:27.635Z,1027.55
2022-11-12T03:08:28.143Z,1027.61
2022-11-12T03:09:28.097Z,1027.62
2022-11-12T03:10:28.428Z,1027.62
2022-11-12T03:11:28.767Z,1027.65
2022-11-12T03:12:29.078Z,1027.63
2022-11-12T03:13:29.439Z,1027.61
2022-11-12T03:14:29.647Z,1027.67
2022-11-12T03:15:29.972Z,1027.65
2022-11-12T03:16:30.319Z,1027.68
2022-11-12T03:17:30.647Z,1027.64
2022-11-12T03:18:30.995Z,1027.60
2022-11-12T03:19:31.316Z,1027.55
2022-11-12T03:20:31.663Z,1027.66
2022-11-12T03:21:32.010Z,1027.63
2022-11-12T03:22:32.227Z,1027.56
2022-11-12T03:23:32.548Z,1027.53
2022-11-12T03:24:32.870Z,1027.64
2022-11-12T03:25:33.219Z,1027.59
2022-11-12T03:26:35.904Z,1027.65
2022-11-12T03:27:33.672Z,1027.64
2022-11-12T03:28:33.999Z,1027.65
2022-11-12T03:29:34.345Z,1027.67
2022-11-12T03:30:34.671Z,1027.66
2022-11-12T03:31:35.042Z,1027.63
2022-11-12T03:32:35.270Z,1027.67
2022-11-12T03:33:35.592Z,1027.70
2022-11-12T03:34:35.913Z,1027.65
2022-11-12T03:35:36.274Z,1027.68
2022-11-12T03:36:36.499Z,1027.61
2022-11-12T03:37:36.732Z,1027.70
2022-11-12T03:38:36.964Z,1027.62
2022-11-12T03:39:37.183Z,1027.68
2022-11-12T03:40:37.541Z,1027.67
2022-11-12T03:41:37.766Z,1027.68
2022-11-12T03:42:38.006Z,1027.75
2022-11-12T03:43:38.235Z,1027.68
2022-11-12T03:44:38.445Z,1027.65
2022-11-12T03:45:38.845Z,1027.59
2022-11-12T03:46:43.986Z,1027.63
2022-11-12T03:47:40.425Z,1027.65
2022-11-12T03:48:39.685Z,1027.66
2022-11-12T03:49:40.041Z,1027.69
2022-11-12T03:50:40.357Z,1027.69
2022-11-12T03:51:40.720Z,1027.63
2022-11-12T03:52:40.926Z,1027.64
2022-11-12T03:53:41.288Z,1027.65
2022-11-12T03:54:41.528Z,1027.71
2022-11-12T03:55:41.766Z,1027.62
2022-11-12T03:56:41.969Z,1027.71
2022-11-12T03:57:42.287Z,1027.65
2022-11-12T03:58:43.579Z,1027.63
2022-11-12T03:59:43.012Z,1027.59
2022-11-12T04:00:43.216Z,1027.69
2022-11-12T04:01:43.541Z,1027.67
2022-11-12T04:02:43.877Z,1027.70
2022-11-12T04:03:44.199Z,1027.72
2022-11-12T04:04:44.538Z,1027.67
2022-11-12T04:05:44.922Z,1027.65
2022-11-12T04:06:45.188Z,1027.64
2022-11-12T04:07:45.427Z,1027.69
2022-11-12T04:08:45.741Z,1027.67
2022-11-12T04:09:46.070Z,1027.64
2022-11-12T04:10:46.421Z,1027.67
2022-11-12T04:11:46.640Z,1027.68
2022-11-12T04:12:46.968Z,1027.60
2022-11-12T04:13:47.324Z,1027.65
2022-11-12T04:14:47.512Z,1027.61
2022-11-12T04:15:47.912Z,1027.61
2022-11-12T04:16:48.158Z,1027.65
2022-11-12T04:17:48.344Z,1027.63
2022-11-12T04:18:48.663Z,1027.59
2022-11-12T04:19:49.013Z,1027.64
2022-11-12T04:20:49.222Z,1027.65
2022-11-12T04:21:49.553Z,1027.63
2022-11-12T04:22:49.905Z,1027.68
2022-11-12T04:23:51.996Z,1027.58
2022-11-12T04:24:50.546Z,1027.63
2022-11-12T04:25:50.783Z,1027.61
2022-11-12T04:26:51.036Z,1027.69
2022-11-12T04:27:51.274Z,1027.68
2022-11-12T04:28:51.473Z,1027.70
2022-11-12T04:29:51.835Z,1027.70
2022-11-12T04:30:52.047Z,1027.69
2022-11-12T04:31:52.396Z,1027.64
2022-11-12T04:32:52.636Z,1027.62
2022-11-12T04:33:52.846Z,1027.61
2022-11-12T04:34:53.208Z,1027.67
2022-11-12T04:35:53.516Z,1027.73
2022-11-12T04:36:53.857Z,1027.70
2022-11-12T04:37:54.104Z,1027.72
2022-11-12T04:38:54.448Z,1027.67
2022-11-12T04:39:54.662Z,1027.64
2022-11-12T04:40:54.907Z,1027.73
2022-11-12T04:41:55.128Z,1027.70
2022-11-12T04:42:55.475Z,1027.65
2022-11-12T04:43:55.813Z,1027.60
2022-11-12T04:44:56.126Z,1027.68
2022-11-12T04:45:56.479Z,1027.68
2022-11-12T04:46:56.695Z,1027.70
2022-11-12T04:47:57.066Z,1027.75
2022-11-12T04:48:57.260Z,1027.71
2022-11-12T04:49:57.610Z,1027.69
2022-11-12T04:51:08.112Z,1027.70
2022-11-12T04:51:58.081Z,1027.71
2022-11-12T04:52:58.414Z,1027.69
2022-11-12T04:53:58.798Z,1027.76
2022-11-12T04:54:59.012Z,1027.73
2022-11-12T04:55:59.384Z,1027.75
2022-11-12T04:56:59.584Z,1027.75
2022-11-12T04:58:00.976Z,1027.76
2022-11-12T04:59:00.155Z,1027.77
2022-11-12T05:00:00.485Z,1027.78
2022-11-12T05:01:00.907Z,1027.79
2022-11-12T05:02:01.153Z,1027.76
2022-11-12T05:03:01.382Z,1027.81
2022-11-12T05:04:01.612Z,1027.67
2022-11-12T05:05:01.834Z,1027.72
2022-11-12T05:06:02.242Z,1027.81
2022-11-12T05:07:02.705Z,1027.79
2022-11-12T05:08:02.793Z,1027.71
2022-11-12T05:09:03.055Z,1027.78
2022-11-12T05:10:03.294Z,1027.73
2022-11-12T05:11:04.908Z,1027.73
2022-11-12T05:12:03.894Z,1027.73
2022-11-12T05:13:04.187Z,1027.74
2022-11-12T05:14:04.416Z,1027.70
2022-11-12T05:15:04.641Z,1027.72
2022-11-12T05:16:04.997Z,1027.66
2022-11-12T05:17:05.218Z,1027.68
2022-11-12T05:18:05.617Z,1027.71
2022-11-12T05:19:05.849Z,1027.66
2022-11-12T05:20:06.111Z,1027.70
2022-11-12T05:21:06.370Z,1027.71
2022-11-12T05:22:06.633Z,1027.64
2022-11-12T05:23:07.746Z,1027.64
2022-11-12T05:24:07.233Z,1027.71
2022-11-12T05:25:07.508Z,1027.68
2022-11-12T05:26:07.759Z,1027.70
2022-11-12T05:27:07.993Z,1027.72
2022-11-12T05:28:08.208Z,1027.67
2022-11-12T05:29:08.970Z,1027.71
2022-11-12T05:30:08.760Z,1027.68
2022-11-12T05:31:09.135Z,1027.70
2022-11-12T05:32:09.330Z,1027.74
2022-11-12T05:33:09.681Z,1027.74
2022-11-12T05:34:09.901Z,1027.76
2022-11-12T05:35:10.247Z,1027.69
2022-11-12T05:36:10.480Z,1027.72
2022-11-12T05:37:10.692Z,1027.71
2022-11-12T05:38:11.041Z,1027.74
2022-11-12T05:39:11.371Z,1027.73
2022-11-12T05:40:11.701Z,1027.73
2022-11-12T05:41:15.973Z,1027.73
2022-11-12T05:42:14.265Z,1027.76
2022-11-12T05:43:12.693Z,1027.70
2022-11-12T05:44:13.023Z,1027.72
2022-11-12T05:45:13.362Z,1027.71
2022-11-12T05:46:13.704Z,1027.78
2022-11-12T05:47:13.942Z,1027.72
2022-11-12T05:48:14.152Z,1027.76
2022-11-12T05:49:14.495Z,1027.75
2022-11-12T05:50:14.843Z,1027.69
2022-11-12T05:51:15.216Z,1027.74
2022-11-12T05:52:15.427Z,1027.81
2022-11-12T05:53:15.772Z,1027.74
2022-11-12T05:54:16.116Z,1027.76
2022-11-12T05:55:16.353Z,1027.82
2022-11-12T05:56:16.585Z,1027.75
2022-11-12T05:57:16.804Z,1027.81
2022-11-12T05:58:17.137Z,1027.81
2022-11-12T05:59:17.505Z,1027.80
2022-11-12T06:00:17.727Z,1027.83
2022-11-12T06:01:18.087Z,1027.79
2022-11-12T06:02:18.373Z,1027.85
2022-11-12T06:03:18.605Z,1027.88
2022-11-12T06:04:18.836Z,1027.90
2022-11-12T06:05:19.183Z,1027.98
2022-11-12T06:06:19.436Z,1028.03
2022-11-12T06:07:19.694Z,1028.02
2022-11-12T06:08:19.928Z,1028.01
2022-11-12T06:09:20.196Z,1028.00
2022-11-12T06:10:20.901Z,1027.94
2022-11-12T06:11:20.820Z,1027.94
2022-11-12T06:12:21.060Z,1027.95
2022-11-12T06:13:21.408Z,1028.00
2022-11-12T06:14:21.650Z,1027.94
2022-11-12T06:15:21.897Z,1027.96
2022-11-12T06:16:22.200Z,1027.95
2022-11-12T06:17:22.441Z,1028.09
2022-11-12T06:18:22.756Z,1028.04
2022-11-12T06:19:23.031Z,1028.02
2022-11-12T06:20:23.260Z,1028.01
2022-11-12T06:21:23.520Z,1028.02
2022-11-12T06:22:23.821Z,1028.03
2022-11-12T06:23:24.072Z,1028.01
2022-11-12T06:24:24.303Z,1028.05
2022-11-12T06:25:24.570Z,1027.99
2022-11-12T06:26:24.817Z,1028.02
2022-11-12T06:27:25.075Z,1028.12
2022-11-12T06:28:25.746Z,1028.12
2022-11-12T06:29:25.612Z,1028.12
2022-11-12T06:30:26.028Z,1028.09
2022-11-12T06:31:26.120Z,1028.14
2022-11-12T06:32:26.351Z,1028.10
2022-11-12T06:33:26.631Z,1028.01
2022-11-12T06:34:26.901Z,1028.05
2022-11-12T06:35:27.144Z,1028.18
2022-11-12T06:36:27.403Z,1028.14
2022-11-12T06:37:27.664Z,1028.17
2022-11-12T06:38:28.267Z,1028.13
2022-11-12T06:39:28.182Z,1028.16
2022-11-12T06:40:28.444Z,1028.19
2022-11-12T06:41:28.704Z,1028.23
2022-11-12T06:42:28.957Z,1028.26
2022-11-12T06:43:29.597Z,1028.25
2022-11-12T06:44:29.524Z,1028.25
2022-11-12T06:45:29.795Z,1028.28
2022-11-12T06:46:30.035Z,1028.27
2022-11-12T06:47:30.317Z,1028.27
2022-11-12T06:48:30.546Z,1028.24
2022-11-12T06:49:30.807Z,1028.32
2022-11-12T06:50:31.082Z,1028.30
2022-11-12T06:51:31.347Z,1028.35
2022-11-12T06:52:31.597Z,1028.29
2022-11-12T06:53:31.859Z,1028.30
2022-11-12T06:54:32.117Z,1028.35
2022-11-12T06:55:32.390Z,1028.32
2022-11-12T06:56:32.708Z,1028.37
2022-11-12T06:57:32.980Z,1028.44
2022-11-12T06:58:33.238Z,1028.41
2022-11-12T06:59:33.510Z,1028.37
2022-11-12T07:00:33.798Z,1028.34
2022-11-12T07:01:34.122Z,1028.28
2022-11-12T07:02:34.393Z,1028.44
2022-11-12T07:03:34.744Z,1028.42
2022-11-12T07:04:34.922Z,1028.48
2022-11-12T07:05:35.202Z,1028.39
2022-11-12T07:06:35.519Z,1028.45
2022-11-12T07:07:36.651Z,1028.32
2022-11-12T07:08:36.082Z,1028.37
2022-11-12T07:09:36.382Z,1028.27
2022-11-12T07:10:36.655Z,1028.34
2022-11-12T07:11:36.924Z,1028.36
2022-11-12T07:12:37.314Z,1028.44
2022-11-12T07:13:37.441Z,1028.51
2022-11-12T07:14:37.692Z,1028.49
2022-11-12T07:15:38.001Z,1028.43
2022-11-12T07:16:38.287Z,1028.36
2022-11-12T07:17:38.587Z,1028.43
2022-11-12T07:18:38.893Z,1028.40
2022-11-12T07:19:39.204Z,1028.39
2022-11-12T07:20:39.534Z,1028.39
2022-11-12T07:21:39.847Z,1028.43
2022-11-12T07:22:40.156Z,1028.48
2022-11-12T07:23:40.484Z,1028.52
2022-11-12T07:24:40.827Z,1028.50
2022-11-12T07:25:41.208Z,1028.54
2022-11-12T07:26:47.133Z,1028.56
2022-11-12T07:27:42.726Z,1028.54
2022-11-12T07:28:42.013Z,1028.48
2022-11-12T07:29:48.237Z,1028.52
2022-11-12T07:30:43.578Z,1028.56
2022-11-12T07:31:42.889Z,1028.47
2022-11-12T07:32:46.153Z,1028.43
2022-11-12T07:33:44.434Z,1028.48
2022-11-12T07:34:43.755Z,1028.43
2022-11-12T07:35:43.989Z,1028.52
2022-11-12T07:36:44.220Z,1028.47
2022-11-12T07:37:44.460Z,1028.41
2022-11-12T07:38:44.742Z,1028.45
2022-11-12T07:39:44.989Z,1028.51
2022-11-12T07:40:45.239Z,1028.51
2022-11-12T07:41:45.470Z,1028.47
2022-11-12T07:42:45.719Z,1028.46
2022-11-12T07:43:45.961Z,1028.50
2022-11-12T07:44:46.195Z,1028.56
2022-11-12T07:45:46.460Z,1028.64
2022-11-12T07:46:46.700Z,1028.59
2022-11-12T07:47:46.952Z,1028.47
2022-11-12T07:48:47.185Z,1028.43
2022-11-12T07:49:47.443Z,1028.37
2022-11-12T07:50:47.706Z,1028.48
2022-11-12T07:51:48.030Z,1028.50
2022-11-12T07:52:48.264Z,1028.47
2022-11-12T07:53:48.504Z,1028.44
2022-11-12T07:54:48.752Z,1028.50
2022-11-12T07:55:49.016Z,1028.44
2022-11-12T07:56:49.266Z,1028.39
2022-11-12T07:57:49.514Z,1028.39
2022-11-12T07:58:49.755Z,1028.34
2022-11-12T07:59:50.012Z,1028.34
2022-11-12T08:00:50.280Z,1028.44
2022-11-12T08:01:51.343Z,1028.55
2022-11-12T08:02:50.876Z,1028.55
2022-11-12T08:03:51.036Z,1028.55
2022-11-12T08:04:51.286Z,1028.50
2022-11-12T08:05:51.555Z,1028.45
2022-11-12T08:06:51.949Z,1028.40
2022-11-12T08:07:52.199Z,1028.46
2022-11-12T08:08:52.448Z,1028.48
2022-11-12T08:09:52.708Z,1028.51
2022-11-12T08:10:52.978Z,1028.46
2022-11-12T08:11:53.231Z,1028.45
2022-11-12T08:12:53.481Z,1028.43
2022-11-12T08:13:53.742Z,1028.46
2022-11-12T08:14:53.992Z,1028.54
2022-11-12T08:15:54.261Z,1028.60
2022-11-12T08:16:54.526Z,1028.55
2022-11-12T08:17:54.885Z,1028.49
2022-11-12T08:18:55.142Z,1028.50
2022-11-12T08:19:55.474Z,1028.52
2022-11-12T08:20:55.754Z,1028.54
2022-11-12T08:21:56.011Z,1028.49
2022-11-12T08:22:56.272Z,1028.46
2022-11-12T08:23:56.531Z,1028.51
2022-11-12T08:24:56.831Z,1028.48
2022-11-12T08:25:57.082Z,1028.53
2022-11-12T08:26:57.351Z,1028.58
2022-11-12T08:27:57.602Z,1028.57
2022-11-12T08:28:57.855Z,1028.71
2022-11-12T08:29:58.112Z,1028.72
2022-11-12T08:30:58.385Z,1028.74
2022-11-12T08:31:58.643Z,1028.70
2022-11-12T08:32:58.920Z,1028.63
2022-11-12T08:33:59.229Z,1028.67
2022-11-12T08:34:59.497Z,1028.66
2022-11-12T08:35:59.764Z,1028.63
2022-11-12T08:37:00.034Z,1028.62
2022-11-12T08:38:00.289Z,1028.69
2022-11-12T08:39:01.497Z,1028.79
2022-11-12T08:40:00.806Z,1028.81
2022-11-12T08:41:01.074Z,1028.88
2022-11-12T08:42:01.338Z,1028.78
2022-11-12T08:43:02.537Z,1028.69
2022-11-12T08:44:07.132Z,1028.67
2022-11-12T08:45:03.098Z,1028.54
2022-11-12T08:46:03.134Z,1028.57
2022-11-12T08:47:02.681Z,1028.61
2022-11-12T08:48:02.950Z,1028.72
2022-11-12T08:49:03.206Z,1028.71
2022-11-12T08:50:03.461Z,1028.80
2022-11-12T08:51:03.731Z,1028.83
2022-11-12T08:52:03.989Z,1028.72
2022-11-12T08:53:04.243Z,1028.73
2022-11-12T08:54:04.481Z,1028.69
2022-11-12T08:55:04.730Z,1028.70
2022-11-12T08:56:04.992Z,1028.73
2022-11-12T08:57:05.325Z,1028.80
2022-11-12T08:58:05.591Z,1028.83
2022-11-12T08:59:07.463Z,1028.87
2022-11-12T09:00:06.103Z,1028.77
2022-11-12T09:01:06.383Z,1028.81
2022-11-12T09:02:06.665Z,1028.77
2022-11-12T09:03:06.928Z,1028.83
2022-11-12T09:04:07.163Z,1028.86
2022-11-12T09:05:07.501Z,1028.88
2022-11-12T09:06:07.753Z,1028.88
2022-11-12T09:07:09.703Z,1028.87
2022-11-12T09:08:08.354Z,1028.92
2022-11-12T09:09:08.493Z,1028.91
2022-11-12T09:10:08.755Z,1028.91
2022-11-12T09:11:09.075Z,1028.93
2022-11-12T09:12:16.445Z,1028.91
2022-11-12T09:13:10.669Z,1028.98
2022-11-12T09:14:10.001Z,1028.99
2022-11-12T09:15:36.310Z,1028.94
2022-11-12T09:16:11.516Z,1028.93
2022-11-12T09:17:10.751Z,1028.97
2022-11-12T09:18:11.007Z,1028.99
2022-11-12T09:19:11.258Z,1029.03
2022-11-12T09:20:11.520Z,1029.13
2022-11-12T09:21:11.848Z,1029.11
2022-11-12T09:22:12.125Z,1029.05
2022-11-12T09:23:12.387Z,1029.02
2022-11-12T09:24:12.628Z,1029.06
2022-11-12T09:25:12.878Z,1029.08
2022-11-12T09:26:13.143Z,1029.01
2022-11-12T09:27:13.457Z,1028.93
2022-11-12T09:28:13.747Z,1028.91
2022-11-12T09:29:14.130Z,1028.99
2022-11-12T09:30:14.372Z,1029.03
2022-11-12T09:31:14.660Z,1029.12
2022-11-12T09:32:14.972Z,1029.13
2022-11-12T09:33:15.220Z,1029.09
2022-11-12T09:34:15.474Z,1029.01
2022-11-12T09:35:15.741Z,1028.98
2022-11-12T09:36:16.002Z,1029.01
2022-11-12T09:37:17.152Z,1029.01
2022-11-12T09:38:16.593Z,1029.05
2022-11-12T09:39:16.855Z,1029.05
2022-11-12T09:40:17.127Z,1029.13
2022-11-12T09:41:17.404Z,1029.09
2022-11-12T09:42:17.654Z,1029.09
2022-11-12T09:43:17.907Z,1029.00
2022-11-12T09:44:18.334Z,1029.00
2022-11-12T09:45:18.472Z,1029.03
2022-11-12T09:46:27.590Z,1028.88
2022-11-12T09:47:20.065Z,1028.93
2022-11-12T09:48:19.386Z,1028.97
2022-11-12T09:49:19.657Z,1029.02
2022-11-12T09:50:19.919Z,1029.04
2022-11-12T09:51:20.196Z,1029.00
2022-11-12T09:52:20.449Z,1028.96
2022-11-12T09:53:20.707Z,1028.94
2022-11-12T09:54:20.955Z,1028.97
2022-11-12T09:55:21.208Z,1028.99
2022-11-12T09:56:21.469Z,1029.04
2022-11-12T09:57:21.742Z,1029.08
2022-11-12T09:58:21.999Z,1028.95
2022-11-12T09:59:22.278Z,1028.95
2022-11-12T10:00:22.538Z,1028.86
2022-11-12T10:01:22.848Z,1028.88
2022-11-12T10:02:23.111Z,1028.89
2022-11-12T10:03:23.387Z,1028.98
2022-11-12T10:04:23.651Z,1029.03
2022-11-12T10:05:23.915Z,1029.01
2022-11-12T10:06:24.187Z,1029.00
2022-11-12T10:07:24.452Z,1028.98
2022-11-12T10:08:25.028Z,1028.88
2022-11-12T10:09:25.021Z,1028.86
2022-11-12T10:10:25.291Z,1028.93
2022-11-12T10:11:25.609Z,1028.98
2022-11-12T10:12:25.784Z,1029.04
2022-11-12T10:13:26.073Z,1028.97
2022-11-12T10:14:26.333Z,1028.90
2022-11-12T10:15:26.584Z,1028.82
2022-11-12T10:16:26.880Z,1028.78
2022-11-12T10:17:27.136Z,1028.79
2022-11-12T10:18:27.787Z,1028.85
2022-11-12T10:19:27.707Z,1028.97
2022-11-12T10:20:28.003Z,1028.90
2022-11-12T10:21:28.276Z,1028.78
2022-11-12T10:22:28.535Z,1028.75
2022-11-12T10:23:28.804Z,1028.73
2022-11-12T10:24:29.058Z,1028.73
2022-11-12T10:25:29.478Z,1028.72
2022-11-12T10:26:29.581Z,1028.75
2022-11-12T10:27:29.846Z,1028.70
2022-11-12T10:28:33.172Z,1028.66
2022-11-12T10:29:31.420Z,1028.64
2022-11-12T10:30:31.148Z,1028.71
2022-11-12T10:31:31.086Z,1028.68
2022-11-12T10:32:31.340Z,1028.66
2022-11-12T10:33:31.611Z,1028.64
2022-11-12T10:34:31.882Z,1028.60
2022-11-12T10:35:32.161Z,1028.70
2022-11-12T10:36:32.431Z,1028.69
2022-11-12T10:37:32.690Z,1028.62
2022-11-12T10:38:33.928Z,1028.56
2022-11-12T10:39:33.261Z,1028.57
2022-11-12T10:40:33.559Z,1028.55
2022-11-12T10:41:33.830Z,1028.61
2022-11-12T10:42:34.974Z,1028.75
2022-11-12T10:43:34.412Z,1028.72
2022-11-12T10:44:34.663Z,1028.74
2022-11-12T10:45:34.954Z,1028.68
2022-11-12T10:46:35.211Z,1028.63
2022-11-12T10:47:35.528Z,1028.67
2022-11-12T10:48:35.972Z,1028.81
2022-11-12T10:49:36.058Z,1028.84
2022-11-12T10:50:36.325Z,1028.69
2022-11-12T10:51:36.604Z,1028.55
2022-11-12T10:52:37.678Z,1028.51
2022-11-12T10:53:37.106Z,1028.48
2022-11-12T10:54:37.402Z,1028.58
2022-11-12T10:55:37.690Z,1028.65
2022-11-12T10:56:37.948Z,1028.69
2022-11-12T10:57:38.252Z,1028.61
2022-11-12T10:58:38.499Z,1028.58
2022-11-12T10:59:38.787Z,1028.49
2022-11-12T11:00:39.489Z,1028.51
2022-11-12T11:01:44.456Z,1028.55
2022-11-12T11:02:40.511Z,1028.61
2022-11-12T11:03:39.848Z,1028.65
2022-11-12T11:04:40.100Z,1028.64
2022-11-12T11:05:40.388Z,1028.70
2022-11-12T11:06:40.728Z,1028.64
2022-11-12T11:07:40.960Z,1028.61
2022-11-12T11:08:41.219Z,1028.57
2022-11-12T11:09:42.274Z,1028.52
2022-11-12T11:10:41.724Z,1028.52
2022-11-12T11:11:42.041Z,1028.52
2022-11-12T11:12:42.320Z,1028.49
2022-11-12T11:13:42.582Z,1028.55
2022-11-12T11:14:42.853Z,1028.51
2022-11-12T11:15:43.145Z,1028.54
2022-11-12T11:16:43.415Z,1028.48
2022-11-12T11:17:43.707Z,1028.49
2022-11-12T11:18:43.963Z,1028.44
2022-11-12T11:19:44.286Z,1028.50
2022-11-12T11:20:44.553Z,1028.52
2022-11-12T11:21:44.825Z,1028.54
2022-11-12T11:22:45.085Z,1028.54
2022-11-12T11:23:45.358Z,1028.57
2022-11-12T11:24:45.617Z,1028.50
2022-11-12T11:25:45.915Z,1028.54
2022-11-12T11:26:46.166Z,1028.55
2022-11-12T11:27:46.426Z,1028.54
2022-11-12T11:28:46.692Z,1028.51
2022-11-12T11:29:46.948Z,1028.52
2022-11-12T11:30:47.239Z,1028.55
2022-11-12T11:31:47.511Z,1028.57
2022-11-12T11:32:47.779Z,1028.58
2022-11-12T11:33:48.080Z,1028.53
2022-11-12T11:34:48.342Z,1028.40
2022-11-12T11:35:48.652Z,1028.46
2022-11-12T11:36:48.910Z,1028.43
2022-11-12T11:37:49.182Z,1028.50
2022-11-12T11:38:49.451Z,1028.49
2022-11-12T11:39:49.726Z,1028.45
2022-11-12T11:40:50.117Z,1028.46
2022-11-12T11:41:50.323Z,1028.38
2022-11-12T11:42:50.562Z,1028.35
2022-11-12T11:43:50.844Z,1028.42
2022-11-12T11:44:51.083Z,1028.43
2022-11-12T11:45:51.365Z,1028.47
2022-11-12T11:46:51.633Z,1028.40
2022-11-12T11:48:01.317Z,1028.36
2022-11-12T11:48:53.233Z,1028.33
2022-11-12T11:49:52.548Z,1028.36
2022-11-12T11:50:52.849Z,1028.41
2022-11-12T11:51:53.123Z,1028.42
2022-11-12T11:52:53.384Z,1028.45
2022-11-12T11:53:53.697Z,1028.36
2022-11-12T11:54:53.977Z,1028.38
2022-11-12T11:55:54.259Z,1028.30
2022-11-12T11:56:54.519Z,1028.40
2022-11-12T11:57:54.813Z,1028.37
2022-11-12T11:58:55.140Z,1028.40
2022-11-12T11:59:55.389Z,1028.35
2022-11-12T12:00:55.714Z,1028.35
2022-11-12T12:01:55.978Z,1028.35
2022-11-12T12:02:56.239Z,1028.26
2022-11-12T12:03:56.542Z,1028.33
2022-11-12T12:04:56.810Z,1028.29
2022-11-12T12:05:57.141Z,1028.29
2022-11-12T12:06:57.456Z,1028.29
2022-11-12T12:07:58.469Z,1028.33
2022-11-12T12:08:58.927Z,1028.35